Latest Weather Observations for Alva Beach

IDQ60801

Issued at 4:35 pm EST Wednesday 3 September 2014 (issued every 30 minutes, with the page automatically refreshed every 10 minutes)

About weather observations | Map of weather stations | Latest weather observations for QLD | Other Formats
Station Details ID: 033295 Name: ALVA BEACH Lat: -19.46 Lon: 147.48 Height: 7.5 m
Data from the previous 72 hours. | See also: Recent months at Alva Beach
Date/Time
EST
Temp
°C
App
Temp
°C
Dew
Point
Rel
Hum
%
Delta-T
°C
Wind Press
QNH
hPa
Press
MSL
hPa
Rain
since 9 am
mm
Dir
 
Spd
km/h
Gust
km/h
Spd
kts
Gust
kts
03/04:30pm 22.4 19.0 12.6 54 5.6 NE 22 26 12 14 1013.2 1013.2 0.0
03/04:00pm 22.9 19.2 10.3 45 6.9 ENE 20 24 11 13 1013.0 1013.0 0.0
03/03:30pm 23.3 20.0 11.0 46 6.8 NE 19 22 10 12 1012.7 1012.7 0.0
03/03:00pm 23.5 19.7 9.9 42 7.4 NE 20 24 11 13 1013.1 1013.1 0.0
03/02:30pm 25.0 20.4 3.6 25 10.5 E 17 24 9 13 1013.2 1013.2 0.0
03/02:00pm 25.7 22.5 5.3 27 10.4 E 11 20 6 11 1013.6 1013.6 0.0
03/01:30pm 27.0 23.1 1.4 19 12.3 S 11 20 6 11 1014.0 1014.0 0.0
03/01:00pm 26.7 22.1 -4.0 13 13.3 SSE 11 20 6 11 1014.3 1014.3 0.0
03/12:30pm 26.3 22.0 -1.5 16 12.6 S 11 20 6 11 1014.8 1014.8 0.0
03/12:00pm 26.0 21.7 -1.7 16 12.4 S 11 20 6 11 1015.1 1015.1 0.0
03/11:30am 25.3 20.6 -1.5 17 12.0 SSE 13 26 7 14 1015.7 1015.7 0.0
03/11:00am 25.1 20.1 -0.9 18 11.8 S 15 28 8 15 1015.9 1015.9 0.0
03/10:30am 24.3 19.4 -0.8 19 11.3 S 15 28 8 15 1016.4 1016.4 0.0
03/10:00am 23.5 18.8 1.2 23 10.4 S 15 26 8 14 1016.6 1016.6 0.0
03/09:30am 22.1 17.5 1.7 26 9.5 SSW 15 30 8 16 1017.1 1017.1 0.0
03/09:00am 20.9 15.5 2.7 30 8.5 SSW 20 32 11 17 1017.1 1017.1 0.0
03/08:30am 19.1 14.9 5.9 42 6.5 SSW 17 28 9 15 1016.8 1016.8 0.0
03/08:00am 17.1 14.2 8.3 56 4.5 SSW 13 24 7 13 1016.7 1016.7 0.0
03/07:30am 14.6 12.2 10.0 74 2.4 SW 13 17 7 9 1016.5 1016.5 0.0
03/07:00am 12.8 11.5 11.4 91 0.7 SSW 9 13 5 7 1016.2 1016.2 0.0
03/06:30am 12.4 11.5 11.3 93 0.6 SW 7 11 4 6 1016.0 1016.0 0.0
03/06:00am 13.0 12.0 12.2 95 0.4 SW 9 13 5 7 1015.4 1015.4 0.0
03/05:30am 13.3 12.8 12.5 95 0.4 SW 7 11 4 6 1015.0 1015.0 0.0
03/05:00am 13.1 12.6 12.0 93 0.6 SW 6 11 3 6 1014.6 1014.6 0.0
03/04:30am 14.4 14.2 13.6 95 0.4 SW 7 9 4 5 1014.4 1014.4 0.0
03/04:00am 13.7 13.4 12.6 93 0.6 SSW 6 7 3 4 1014.4 1014.4 0.0
03/03:30am 14.4 14.1 13.3 93 0.6 SW 7 9 4 5 1014.7 1014.7 0.0
03/03:00am 14.9 14.8 13.8 93 0.6 SSW 7 9 4 5 1014.8 1014.8 0.0
03/02:30am 15.4 15.4 14.3 93 0.6 S 7 9 4 5 1015.0 1015.0 0.0
03/02:00am 15.9 16.1 14.6 92 0.7 S 7 9 4 5 1015.0 1015.0 0.0
03/01:30am 16.2 16.4 14.6 90 0.9 S 7 11 4 6 1015.1 1015.1 0.0
03/01:00am 17.1 17.7 15.3 89 1.0 WSW 6 9 3 5 1015.3 1015.3 0.0
03/12:30am 18.2 18.8 15.3 83 1.7 W 6 9 3 5 1015.5 1015.5 0.0
03/12:00am 19.2 19.8 15.9 81 2.0 WNW 7 11 4 6 1015.4 1015.4 0.0
 
Date/Time
EST
Temp
°C
App
Temp
°C
Dew
Point
Rel
Hum
%
Delta-T
°C
Wind Press
QNH
hPa
Press
MSL
hPa
Rain
since 9 am
mm
Dir
 
Spd
km/h
Gust
km/h
Spd
kts
Gust
kts
02/11:30pm 19.5 20.2 16.0 80 2.1 WNW 7 13 4 7 1015.3 1015.3 0.0
02/11:00pm 19.6 19.9 15.9 79 2.2 WNW 9 15 5 8 1015.3 1015.3 0.0
02/10:30pm 19.4 20.1 15.5 78 2.3 NW 6 9 3 5 1015.4 1015.4 0.0
02/10:00pm 19.4 20.0 15.3 77 2.4 NW 6 11 3 6 1015.3 1015.3 0.0
02/09:30pm 19.6 20.1 15.0 75 2.7 NW 6 11 3 6 1015.1 1015.1 0.0
02/09:00pm 20.1 19.6 14.9 72 3.0 NNW 11 17 6 9 1015.0 1015.0 0.0
02/08:30pm 20.2 19.7 14.8 71 3.2 NNW 11 17 6 9 1014.9 1014.9 0.0
02/08:00pm 20.4 19.8 14.5 69 3.4 NNW 11 19 6 10 1014.8 1014.8 0.0
02/07:30pm 20.5 19.8 14.4 68 3.6 NNW 11 17 6 9 1014.6 1014.6 0.0
02/07:00pm 20.5 19.8 14.2 67 3.7 NNW 11 17 6 9 1014.2 1014.2 0.0
02/06:30pm 20.8 19.7 14.2 66 3.8 NNW 13 19 7 10 1013.9 1013.9 0.0
02/06:00pm 21.0 19.8 13.9 64 4.1 NNW 13 22 7 12 1013.7 1013.7 0.0
02/05:30pm 21.5 20.0 14.2 63 4.3 N 15 24 8 13 1013.6 1013.6 0.0
02/05:00pm 21.8 20.2 14.9 65 4.1 N 17 24 9 13 1013.6 1013.6 0.0
02/04:30pm 22.1 19.1 14.7 63 4.4 N 24 30 13 16 1013.6 1013.6 0.0
02/04:00pm 22.9 19.8 14.5 59 5.0 N 24 30 13 16 1013.4 1013.4 0.0
02/03:30pm 22.9 19.7 14.2 58 5.1 N 24 30 13 16 1013.4 1013.4 0.0
02/03:00pm 23.0 20.5 13.5 55 5.5 N 19 26 10 14 1013.8 1013.8 0.0
02/02:30pm 23.7 21.1 13.8 53 5.8 N 20 26 11 14 1014.0 1014.0 0.0
02/02:00pm 24.0 21.5 14.1 54 5.8 N 20 24 11 13 1014.5 1014.5 0.0
02/01:30pm 23.8 21.2 13.9 54 5.8 N 20 24 11 13 1014.9 1014.9 0.0
02/01:00pm 23.7 21.7 13.8 53 5.8 NNE 17 20 9 11 1015.4 1015.4 0.0
02/12:30pm 23.6 21.9 13.5 53 5.9 NNE 15 19 8 10 1015.7 1015.7 0.0
02/12:00pm 24.1 22.1 13.9 53 6.0 NNE 17 19 9 10 1016.5 1016.5 0.0
02/11:30am 23.7 22.4 13.8 53 5.8 NNE 13 17 7 9 1017.1 1017.1 0.0
02/11:00am 22.9 21.8 13.1 54 5.6 NNE 11 15 6 8 1017.5 1017.5 0.0
02/10:30am 22.9 21.7 12.8 53 5.8 NNE 11 13 6 7 1017.8 1017.8 0.0
02/10:00am 22.5 21.0 11.9 51 6.0 NE 11 13 6 7 1018.3 1018.3 0.0
02/09:30am 21.9 21.3 12.2 54 5.5 NNE 7 11 4 6 1018.6 1018.6 0.0
02/09:00am 21.3 21.3 13.5 61 4.5 E 6 9 3 5 1018.6 1018.6 0.0
02/08:30am 19.4 19.3 13.3 68 3.5 SSW 6 9 3 5 1018.5 1018.5 0.0
02/08:00am 17.2 16.8 12.9 76 2.4 SW 7 11 4 6 1018.3 1018.3 0.0
02/07:30am 15.5 15.0 12.8 84 1.5 SW 7 11 4 6 1018.3 1018.3 0.0
02/07:00am 13.8 12.8 12.2 90 0.9 SW 9 11 5 6 1018.0 1018.0 0.0
02/06:30am 13.3 12.2 12.0 92 0.7 SSW 9 11 5 6 1017.8 1017.8 0.0
02/06:00am 13.6 12.7 12.5 93 0.6 SSW 9 11 5 6 1017.6 1017.6 0.0
02/05:30am 13.5 12.5 12.4 93 0.6 SSW 9 11 5 6 1017.3 1017.3 0.0
02/05:00am 13.4 12.4 12.3 93 0.6 S 9 11 5 6 1017.0 1017.0 0.0
02/04:30am 13.4 12.3 12.1 92 0.7 SSW 9 11 5 6 1017.2 1017.2 0.0
02/04:00am 13.4 12.3 12.0 91 0.8 SSW 9 11 5 6 1017.0 1017.0 0.0
02/03:30am 13.9 13.4 12.5 91 0.8 SSE 7 9 4 5 1017.1 1017.1 0.0
02/03:00am 14.0 13.0 12.4 90 0.9 S 9 11 5 6 1017.1 1017.1 0.0
02/02:30am 14.1 13.0 12.1 88 1.1 S 9 11 5 6 1017.6 1017.6 0.0
02/02:00am 14.9 13.8 11.9 82 1.6 S 9 11 5 6 1017.7 1017.7 0.0
02/01:30am 15.9 14.4 10.4 70 2.9 ENE 9 13 5 7 1018.0 1018.0 0.0
02/01:00am 19.1 17.4 12.4 65 3.7 NE 13 15 7 8 1018.2 1018.2 0.0
02/12:30am 18.9 17.6 12.4 66 3.6 ENE 11 15 6 8 1018.2 1018.2 0.0
02/12:00am 19.6 18.0 12.8 65 3.8 NE 13 17 7 9 1018.2 1018.2 0.0
 
Date/Time
EST
Temp
°C
App
Temp
°C
Dew
Point
Rel
Hum
%
Delta-T
°C
Wind Press
QNH
hPa
Press
MSL
hPa
Rain
since 9 am
mm
Dir
 
Spd
km/h
Gust
km/h
Spd
kts
Gust
kts
01/11:30pm 19.8 17.8 12.6 63 4.0 NE 15 17 8 9 1018.2 1018.2 0.0
01/11:00pm 20.1 17.2 12.3 61 4.4 NE 19 20 10 11 1018.0 1018.0 0.0
01/10:30pm 19.9 17.6 12.9 64 4.0 NE 17 19 9 10 1018.0 1018.0 0.0
01/10:00pm 19.9 17.2 12.9 64 4.0 NE 19 30 10 16 1017.9 1017.9 0.0
01/09:30pm 20.1 17.9 13.3 65 3.9 ENE 17 20 9 11 1018.1 1018.1 0.0
01/09:00pm 20.1 17.3 12.6 62 4.2 ENE 19 20 10 11 1018.2 1018.2 0.0
01/08:30pm 20.4 18.4 13.8 66 3.8 ENE 17 20 9 11 1018.0 1018.0 0.0
01/08:00pm 20.3 17.4 13.0 63 4.1 ENE 20 22 11 12 1017.7 1017.7 0.0
01/07:30pm 20.4 17.6 13.1 63 4.2 ENE 20 24 11 13 1017.3 1017.3 0.0
01/07:00pm 20.6 17.8 13.1 62 4.3 ENE 20 24 11 13 1017.0 1017.0 0.0
01/06:30pm 20.6 17.7 12.8 61 4.4 ENE 20 24 11 13 1016.7 1016.7 0.0
01/06:00pm 20.8 17.9 12.8 60 4.5 ENE 20 24 11 13 1016.4 1016.4 0.0
01/05:30pm 21.2 18.5 13.4 61 4.5 ENE 20 24 11 13 1016.1 1016.1 0.0
01/05:00pm 21.7 18.8 12.8 57 5.1 NE 20 24 11 13 1015.9 1015.9 0.0
01/04:30pm 22.0 18.8 12.0 53 5.6 NE 20 24 11 13 1015.9 1015.9 0.0
01/04:00pm 22.1 19.8 14.0 60 4.7 ENE 19 22 10 12 1015.8 1015.8 0.0
01/03:30pm 22.4 20.5 14.3 60 4.7 ENE 17 20 9 11 1015.9 1015.9 0.0
01/03:00pm 22.5 21.0 14.1 59 4.9 E 15 20 8 11 1016.2 1016.2 0.0
01/02:30pm 22.4 20.7 13.7 58 5.0 E 15 19 8 10 1016.3 1016.3 0.0
01/02:00pm 21.8 20.0 13.4 59 4.8 E 15 20 8 11 1016.4 1016.4 0.0
01/01:30pm 22.2 20.4 13.3 57 5.1 E 15 19 8 10 1017.1 1017.1 0.0
01/01:00pm 22.3 20.9 13.4 57 5.1 E 13 17 7 9 1017.7 1017.7 0.0
01/12:30pm 22.3 20.9 12.3 53 5.7 E 11 15 6 8 1018.1 1018.1 0.0
01/12:00pm 22.0 20.2 12.0 53 5.6 E 13 17 7 9 1018.3 1018.3 0.0
01/11:30am 22.9 21.5 13.4 55 5.5 E 13 17 7 9 1018.9 1018.9 0.0
01/11:00am 22.5 21.5 13.3 56 5.3 ESE 11 17 6 9 1019.2 1019.2 0.0
01/10:30am 22.2 21.0 12.7 55 5.4 ESE 11 17 6 9 1019.4 1019.4 0.0
01/10:00am 22.8 21.9 13.6 56 5.3 ESE 11 17 6 9 1019.4 1019.4 0.0
01/09:30am 21.8 20.6 12.9 57 5.1 SE 11 19 6 10 1019.8 1019.8 0.0
01/09:00am 21.4 20.7 13.1 59 4.7 SE 9 17 5 9 1019.2 1019.2 0.0
01/08:30am 19.9 19.5 12.9 64 4.0 S 7 11 4 6 1019.1 1019.1 0.0
01/08:00am 17.6 16.6 12.3 71 2.9 S 9 13 5 7 1018.6 1018.6 0.0
01/07:30am 15.1 13.4 11.3 78 2.0 S 11 15 6 8 1018.6 1018.6 0.0
01/07:00am 13.1 11.6 10.5 84 1.3 SSW 9 13 5 7 1018.0 1018.0 0.0
01/06:30am 12.0 10.4 10.1 88 1.0 SSW 9 13 5 7 1017.7 1017.7 0.0
01/06:00am 12.0 10.3 9.9 87 1.1 SSW 9 13 5 7 1017.4 1017.4 0.0
01/05:30am 12.2 10.5 9.9 86 1.2 SSW 9 13 5 7 1017.2 1017.2 0.0
01/05:00am 12.6 11.0 10.1 85 1.3 SSW 9 11 5 6 1016.9 1016.9 0.0
01/04:30am 12.7 11.1 10.2 85 1.3 SSW 9 13 5 7 1016.9 1016.9 0.0
01/04:00am 12.8 11.2 10.2 84 1.3 SSW 9 13 5 7 1016.9 1016.9 0.0
01/03:30am 13.0 11.4 10.2 83 1.4 SSW 9 11 5 6 1016.9 1016.9 0.0
01/03:00am 13.3 12.0 10.1 81 1.6 SSW 7 11 4 6 1016.9 1016.9 0.0
01/02:30am 13.9 12.7 10.3 79 1.9 SSW 7 11 4 6 1017.0 1017.0 0.0
01/02:00am 14.8 13.2 10.2 74 2.4 SSW 9 11 5 6 1017.4 1017.4 0.0
01/01:30am 19.0 16.9 11.3 61 4.2 ENE 13 19 7 10 1017.4 1017.4 0.0
01/01:00am 19.4 16.9 11.2 59 4.5 ENE 15 20 8 11 1017.6 1017.6 0.0
01/12:30am 19.4 16.9 11.2 59 4.5 E 15 19 8 10 1017.7 1017.7 0.0
01/12:00am 19.8 17.1 11.6 59 4.5 E 17 22 9 12 1017.7 1017.7 0.0
 
Date/Time
EST
Temp
°C
App
Temp
°C
Dew
Point
Rel
Hum
%
Delta-T
°C
Wind Press
QNH
hPa
Press
MSL
hPa
Rain
since 9 am
mm
Dir
 
Spd
km/h
Gust
km/h
Spd
kts
Gust
kts
31/11:30pm 19.9 16.8 12.2 61 4.3 ENE 20 28 11 15 1017.8 1017.8 0.0
31/11:00pm 19.9 16.0 12.2 61 4.3 ENE 24 32 13 17 1017.7 1017.7 0.0
31/10:30pm 20.1 16.7 11.3 57 4.8 E 20 28 11 15 1017.8 1017.8 0.0
31/10:00pm 20.0 16.4 11.7 59 4.6 ENE 22 28 12 15 1017.8 1017.8 0.0
31/09:30pm 20.2 17.0 11.9 59 4.6 E 20 26 11 14 1017.8 1017.8 0.0
31/09:00pm 20.0 17.0 12.7 63 4.1 E 20 26 11 14 1017.7 1017.7 0.0
31/08:30pm 20.1 16.1 13.1 64 4.0 ENE 26 32 14 17 1017.5 1017.5 0.0
31/08:00pm 20.1 16.0 12.8 63 4.1 ENE 26 33 14 18 1017.1 1017.1 0.0
31/07:30pm 20.2 16.7 13.4 65 3.9 E 24 32 13 17 1016.9 1016.9 0.0
31/07:00pm 20.2 16.7 13.4 65 3.9 E 24 32 13 17 1016.4 1016.4 0.0
31/06:30pm 20.2 16.7 13.4 65 3.9 E 24 32 13 17 1016.0 1016.0 0.0
31/06:00pm 20.5 16.8 12.7 61 4.4 E 24 32 13 17 1015.7 1015.7 0.0
31/05:30pm 20.9 17.1 12.3 58 4.8 E 24 32 13 17 1015.4 1015.4 0.0
31/05:00pm 21.3 16.5 11.6 54 5.4 ENE 28 33 15 18 1015.1 1015.1 0.0

Other Formats:

Comma delimited format used in spreadsheet applications
http://www.bom.gov.au/fwo/IDQ60801/IDQ60801.95296.axf

JavaScript Object Notation format (JSON) in row-major order
http://www.bom.gov.au/fwo/IDQ60801/IDQ60801.95296.json